createdAt,value
2022-09-12T00:02:29.727Z,84.48
2022-09-12T00:05:00.335Z,84.36
2022-09-12T00:07:31.773Z,84.50
2022-09-12T00:10:01.724Z,84.48
2022-09-12T00:12:33.213Z,84.67
2022-09-12T00:15:03.216Z,84.36
2022-09-12T00:17:36.427Z,84.45
2022-09-12T00:20:10.991Z,84.65
2022-09-12T00:22:42.497Z,84.41
2022-09-12T00:25:14.108Z,84.32
2022-09-12T00:27:45.547Z,84.28
2022-09-12T00:30:15.636Z,84.36
2022-09-12T00:32:47.295Z,84.31
2022-09-12T00:35:18.892Z,84.49
2022-09-12T00:37:50.346Z,84.46
2022-09-12T00:40:20.373Z,84.37
2022-09-12T00:42:52.376Z,84.27
2022-09-12T00:45:29.544Z,84.14
2022-09-12T00:48:04.424Z,84.27
2022-09-12T00:50:35.926Z,84.08
2022-09-12T00:53:08.161Z,84.08
2022-09-12T00:55:45.360Z,84.18
2022-09-12T00:58:21.464Z,84.08
2022-09-12T01:00:53.407Z,84.08
2022-09-12T01:03:26.034Z,84.00
2022-09-12T01:06:05.768Z,83.81
2022-09-12T01:08:39.032Z,83.54
2022-09-12T01:11:12.900Z,83.64
2022-09-12T01:13:45.036Z,83.77
2022-09-12T01:16:17.118Z,83.80
2022-09-12T01:18:58.669Z,83.70
2022-09-12T01:21:43.572Z,83.46
2022-09-12T01:24:43.498Z,83.46
2022-09-12T01:27:24.458Z,83.49
2022-09-12T01:30:31.068Z,83.27
2022-09-12T01:33:29.640Z,83.74
2022-09-12T01:36:19.356Z,83.56
2022-09-12T01:38:59.248Z,83.78
2022-09-12T01:41:39.334Z,83.85
2022-09-12T01:44:24.265Z,83.80
2022-09-12T01:47:00.377Z,83.38
2022-09-12T01:49:48.714Z,83.44
2022-09-12T01:52:25.595Z,83.39
2022-09-12T01:55:06.484Z,83.46
2022-09-12T01:57:46.243Z,83.18
2022-09-12T02:00:18.242Z,82.93
2022-09-12T02:02:54.665Z,82.99
2022-09-12T02:05:30.803Z,82.93
2022-09-12T02:08:08.110Z,83.06
2022-09-12T02:10:46.236Z,82.93
2022-09-12T02:13:24.263Z,82.66
2022-09-12T02:16:02.114Z,82.91
2022-09-12T02:18:35.266Z,82.93
2022-09-12T02:21:08.783Z,82.82
2022-09-12T02:23:43.431Z,82.97
2022-09-12T02:26:21.668Z,82.71
2022-09-12T02:28:54.049Z,82.75
2022-09-12T02:31:28.473Z,82.81
2022-09-12T02:34:11.332Z,82.90
2022-09-12T02:36:50.998Z,82.74
2022-09-12T02:39:22.588Z,82.79
2022-09-12T02:41:56.504Z,82.78
2022-09-12T02:44:30.505Z,82.68
2022-09-12T02:47:05.847Z,82.59
2022-09-12T02:49:37.732Z,82.67
2022-09-12T02:52:09.396Z,82.85
2022-09-12T02:54:41.111Z,82.74
2022-09-12T02:57:22.796Z,82.80
2022-09-12T02:59:57.927Z,82.61
2022-09-12T03:02:41.509Z,82.37
2022-09-12T03:05:25.340Z,82.42
2022-09-12T03:08:14.059Z,82.33
2022-09-12T03:11:00.942Z,82.24
2022-09-12T03:13:41.253Z,82.36
2022-09-12T03:16:23.143Z,82.22
2022-09-12T03:19:03.941Z,82.18
2022-09-12T03:21:43.061Z,82.29
2022-09-12T03:24:18.532Z,82.12
2022-09-12T03:26:55.828Z,82.48
2022-09-12T03:29:29.790Z,82.38
2022-09-12T03:32:01.638Z,82.22
2022-09-12T03:34:33.228Z,82.19
2022-09-12T03:37:05.054Z,82.11
2022-09-12T03:39:36.655Z,82.33
2022-09-12T03:42:08.272Z,82.25
2022-09-12T03:44:39.694Z,82.18
2022-09-12T03:47:11.482Z,82.34
2022-09-12T03:49:42.980Z,82.05
2022-09-12T03:52:13.044Z,82.08
2022-09-12T03:54:44.437Z,82.39
2022-09-12T03:57:15.875Z,82.34
2022-09-12T03:59:45.809Z,82.14
2022-09-12T04:02:17.504Z,82.27
2022-09-12T04:04:49.129Z,82.22
2022-09-12T04:07:19.095Z,82.25
2022-09-12T04:09:50.566Z,82.44
2022-09-12T04:12:22.242Z,82.48
2022-09-12T04:14:53.726Z,82.36
2022-09-12T04:17:25.188Z,82.42
2022-09-12T04:19:55.128Z,82.28
2022-09-12T04:22:26.537Z,82.55
2022-09-12T04:24:57.970Z,82.63
2022-09-12T04:27:27.989Z,82.71
2022-09-12T04:30:00.174Z,82.84
2022-09-12T04:32:32.876Z,82.89
2022-09-12T04:35:04.829Z,82.81
2022-09-12T04:37:36.503Z,82.83
2022-09-12T04:40:09.960Z,82.96
2022-09-12T04:42:41.447Z,82.97
2022-09-12T04:45:13.678Z,83.01
2022-09-12T04:47:46.491Z,82.77
2022-09-12T04:50:18.577Z,82.66
2022-09-12T04:52:53.431Z,82.55
2022-09-12T04:55:25.532Z,82.71
2022-09-12T04:57:56.940Z,82.74
2022-09-12T05:00:29.013Z,82.66
2022-09-12T05:03:00.482Z,82.99
2022-09-12T05:05:30.436Z,82.89
2022-09-12T05:08:02.005Z,82.90
2022-09-12T05:10:33.211Z,83.04
2022-09-12T05:13:04.602Z,83.08
2022-09-12T05:15:36.054Z,83.05
2022-09-12T05:18:07.589Z,83.25
2022-09-12T05:20:37.530Z,83.14
2022-09-12T05:23:09.086Z,83.31
2022-09-12T05:25:40.680Z,83.17
2022-09-12T05:28:10.632Z,83.09
2022-09-12T05:30:42.092Z,82.90
2022-09-12T05:33:12.173Z,82.67
2022-09-12T05:35:51.769Z,82.90
2022-09-12T05:38:24.370Z,82.82
2022-09-12T05:40:55.868Z,82.78
2022-09-12T05:43:25.811Z,82.53
2022-09-12T05:46:03.379Z,82.81
2022-09-12T05:48:35.252Z,82.74
2022-09-12T05:51:09.292Z,82.73
2022-09-12T05:53:42.066Z,83.00
2022-09-12T05:56:15.814Z,82.94
2022-09-12T05:58:49.718Z,82.90
2022-09-12T06:01:21.722Z,82.77
2022-09-12T06:03:54.639Z,82.70
2022-09-12T06:06:27.744Z,83.07
2022-09-12T06:09:01.426Z,83.17
2022-09-12T06:11:34.886Z,83.02
2022-09-12T06:14:06.748Z,82.89
2022-09-12T06:16:38.916Z,82.93
2022-09-12T06:19:16.820Z,83.07
2022-09-12T06:21:49.420Z,83.13
2022-09-12T06:24:22.191Z,83.19
2022-09-12T06:26:53.675Z,82.73
2022-09-12T06:29:26.654Z,82.57
2022-09-12T06:31:58.079Z,82.87
2022-09-12T06:34:31.006Z,82.54
2022-09-12T06:37:03.943Z,82.16
2022-09-12T06:39:36.585Z,82.84
2022-09-12T06:42:08.312Z,82.72
2022-09-12T06:44:41.222Z,81.66
2022-09-12T06:47:13.072Z,81.32
2022-09-12T06:49:44.762Z,81.28
2022-09-12T06:52:16.194Z,80.88
2022-09-12T06:54:46.647Z,80.82
2022-09-12T06:57:18.116Z,81.21
2022-09-12T06:59:48.035Z,81.15
2022-09-12T07:02:19.465Z,80.59
2022-09-12T07:04:51.809Z,80.73
2022-09-12T07:07:24.177Z,80.68
2022-09-12T07:09:57.675Z,79.93
2022-09-12T07:12:30.041Z,78.98
2022-09-12T07:15:01.551Z,77.65
2022-09-12T07:17:31.452Z,77.12
2022-09-12T07:20:03.072Z,75.83
2022-09-12T07:22:34.659Z,75.33
2022-09-12T07:25:05.125Z,76.03
2022-09-12T07:27:37.681Z,74.77
2022-09-12T07:30:10.463Z,74.69
2022-09-12T07:32:41.926Z,74.68
2022-09-12T07:35:11.907Z,74.90
2022-09-12T07:37:43.597Z,74.34
2022-09-12T07:40:15.186Z,74.44
2022-09-12T07:42:47.807Z,73.32
2022-09-12T07:45:19.245Z,73.61
2022-09-12T07:47:49.539Z,73.44
2022-09-12T07:50:20.986Z,73.45
2022-09-12T07:52:50.967Z,71.41
2022-09-12T07:55:22.498Z,72.04
2022-09-12T07:57:53.904Z,71.64
2022-09-12T08:00:24.025Z,71.50
2022-09-12T08:02:56.609Z,70.45
2022-09-12T08:05:30.964Z,70.83
2022-09-12T08:08:02.428Z,70.55
2022-09-12T08:10:32.392Z,70.16
2022-09-12T08:13:03.913Z,70.75
2022-09-12T08:15:37.095Z,71.26
2022-09-12T08:18:08.728Z,70.77
2022-09-12T08:20:40.199Z,69.30
2022-09-12T08:23:10.632Z,68.20
2022-09-12T08:25:42.119Z,68.67
2022-09-12T08:28:12.073Z,69.51
2022-09-12T08:30:43.531Z,69.26
2022-09-12T08:33:15.279Z,69.61
2022-09-12T08:35:46.784Z,68.65
2022-09-12T08:38:16.938Z,67.07
2022-09-12T08:40:59.428Z,67.56
2022-09-12T08:43:44.139Z,66.41
2022-09-12T08:46:23.699Z,65.72
2022-09-12T08:48:57.082Z,64.98
2022-09-12T08:51:31.179Z,64.92
2022-09-12T08:54:03.686Z,63.84
2022-09-12T08:56:39.959Z,64.75
2022-09-12T08:59:11.798Z,63.77
2022-09-12T09:01:51.914Z,64.68
2022-09-12T09:04:37.387Z,64.90
2022-09-12T09:07:22.091Z,66.03
2022-09-12T09:10:09.143Z,63.91
2022-09-12T09:12:53.001Z,63.38
2022-09-12T09:15:49.454Z,63.08
2022-09-12T09:18:25.014Z,64.05
2022-09-12T09:21:01.144Z,62.54
2022-09-12T09:23:36.043Z,62.19
2022-09-12T09:26:14.676Z,62.54
2022-09-12T09:28:51.349Z,62.96
2022-09-12T09:31:24.953Z,63.93
2022-09-12T09:33:58.589Z,63.60
2022-09-12T09:36:42.131Z,63.67
2022-09-12T09:39:25.595Z,61.94
2022-09-12T09:42:09.736Z,60.50
2022-09-12T09:44:41.573Z,61.47
2022-09-12T09:47:13.561Z,61.48
2022-09-12T09:49:45.098Z,61.76
2022-09-12T09:52:17.790Z,61.49
2022-09-12T09:54:54.530Z,62.31
2022-09-12T09:57:47.609Z,62.09
2022-09-12T10:00:33.847Z,61.95
2022-09-12T10:03:25.518Z,60.76
2022-09-12T10:05:58.256Z,61.18
2022-09-12T10:08:31.597Z,60.87
2022-09-12T10:11:06.138Z,60.13
2022-09-12T10:13:41.873Z,59.01
2022-09-12T10:16:24.660Z,59.66
2022-09-12T10:18:58.070Z,59.70
2022-09-12T10:21:40.216Z,60.69
2022-09-12T10:24:22.918Z,61.76
2022-09-12T10:26:57.701Z,61.63
2022-09-12T10:29:32.480Z,61.53
2022-09-12T10:32:07.134Z,60.42
2022-09-12T10:34:43.041Z,60.22
2022-09-12T10:37:24.581Z,59.70
2022-09-12T10:39:59.045Z,57.82
2022-09-12T10:42:54.461Z,58.06
2022-09-12T10:45:30.015Z,57.81
2022-09-12T10:48:07.376Z,57.92
2022-09-12T10:50:43.480Z,57.62
2022-09-12T10:53:22.841Z,57.96
2022-09-12T10:56:07.867Z,57.47
2022-09-12T10:59:03.815Z,56.61
2022-09-12T11:01:44.272Z,57.04
2022-09-12T11:04:28.205Z,57.32
2022-09-12T11:07:15.536Z,56.91
2022-09-12T11:09:56.483Z,55.71
2022-09-12T11:12:33.975Z,55.09
2022-09-12T11:15:20.114Z,55.50
2022-09-12T11:17:57.649Z,54.49
2022-09-12T11:20:55.007Z,53.17
2022-09-12T11:23:47.006Z,53.90
2022-09-12T11:26:48.683Z,53.51
2022-09-12T11:29:27.024Z,52.89
2022-09-12T11:32:22.723Z,53.87
2022-09-12T11:35:03.548Z,54.62
2022-09-12T11:37:53.268Z,55.56
2022-09-12T11:40:33.582Z,55.58
2022-09-12T11:43:12.886Z,54.66
2022-09-12T11:45:46.931Z,55.64
2022-09-12T11:48:27.985Z,55.67
2022-09-12T11:51:01.699Z,55.21
2022-09-12T11:53:37.589Z,54.83
2022-09-12T11:56:15.460Z,53.58
2022-09-12T11:58:52.717Z,54.38
2022-09-12T12:01:28.810Z,53.22
2022-09-12T12:04:07.612Z,53.69
2022-09-12T12:06:49.353Z,53.03
2022-09-12T12:09:20.918Z,53.34
2022-09-12T12:11:57.619Z,53.22
2022-09-12T12:14:39.399Z,53.32
2022-09-12T12:17:18.389Z,53.68
2022-09-12T12:20:02.155Z,53.89
2022-09-12T12:22:36.485Z,52.85
2022-09-12T12:25:29.993Z,52.19
2022-09-12T12:28:04.266Z,53.19
2022-09-12T12:31:02.957Z,53.74
2022-09-12T12:34:11.810Z,52.50
2022-09-12T12:36:50.289Z,53.21
2022-09-12T12:39:55.609Z,52.20
2022-09-12T12:43:02.598Z,51.17
2022-09-12T12:45:59.613Z,51.86
2022-09-12T12:48:35.325Z,51.86
2022-09-12T12:51:27.267Z,52.55
2022-09-12T12:54:00.410Z,53.30
2022-09-12T12:56:40.066Z,53.06
2022-09-12T12:59:24.150Z,53.55
2022-09-12T13:01:59.962Z,52.67
2022-09-12T13:04:33.989Z,51.85
2022-09-12T13:07:09.025Z,50.84
2022-09-12T13:09:48.351Z,51.78
2022-09-12T13:12:24.971Z,51.13
2022-09-12T13:15:00.851Z,50.42
2022-09-12T13:17:38.558Z,51.49
2022-09-12T13:20:28.197Z,51.67
2022-09-12T13:23:00.720Z,51.76
2022-09-12T13:25:34.730Z,51.84
2022-09-12T13:28:15.721Z,52.08
2022-09-12T13:30:50.112Z,51.26
2022-09-12T13:33:27.463Z,52.08
2022-09-12T13:36:31.870Z,51.79
2022-09-12T13:39:18.591Z,51.98
2022-09-12T13:42:18.610Z,51.22
2022-09-12T13:44:54.052Z,51.38
2022-09-12T13:47:29.496Z,52.20
2022-09-12T13:50:02.785Z,52.48
2022-09-12T13:52:36.266Z,51.16
2022-09-12T13:55:16.011Z,51.33
2022-09-12T13:57:56.958Z,52.06
2022-09-12T14:00:31.670Z,52.05
2022-09-12T14:03:23.213Z,52.30
2022-09-12T14:05:58.148Z,52.77
2022-09-12T14:08:30.267Z,52.56
2022-09-12T14:11:08.531Z,51.42
2022-09-12T14:13:40.676Z,52.03
2022-09-12T14:16:13.286Z,52.72
2022-09-12T14:18:48.378Z,52.30
2022-09-12T14:21:34.100Z,52.61
2022-09-12T14:24:08.536Z,53.06
2022-09-12T14:26:41.775Z,52.96
2022-09-12T14:29:17.822Z,52.95
2022-09-12T14:32:00.817Z,53.18
2022-09-12T14:34:32.429Z,53.65
2022-09-12T14:37:08.614Z,54.07
2022-09-12T14:39:45.622Z,54.29
2022-09-12T14:42:19.872Z,54.88
2022-09-12T14:45:00.165Z,55.23
2022-09-12T14:47:41.407Z,55.88
2022-09-12T14:50:19.585Z,56.20
2022-09-12T14:53:06.134Z,56.54
2022-09-12T14:55:46.245Z,57.33
2022-09-12T14:58:28.196Z,57.35
2022-09-12T15:01:04.609Z,57.71
2022-09-12T15:03:38.508Z,58.40
2022-09-12T15:06:25.542Z,58.73
2022-09-12T15:08:58.821Z,58.36
2022-09-12T15:11:30.490Z,58.71
2022-09-12T15:14:13.867Z,58.18
2022-09-12T15:16:45.873Z,58.07
2022-09-12T15:19:17.734Z,57.53
2022-09-12T15:21:53.849Z,56.75
2022-09-12T15:24:25.552Z,56.98
2022-09-12T15:26:57.061Z,56.77
2022-09-12T15:29:28.586Z,56.76
2022-09-12T15:32:00.056Z,56.76
2022-09-12T15:34:31.742Z,56.61
2022-09-12T15:37:03.144Z,56.77
2022-09-12T15:39:33.140Z,57.06
2022-09-12T15:42:04.757Z,57.50
2022-09-12T15:44:36.445Z,57.40
2022-09-12T15:47:11.401Z,57.27
2022-09-12T15:49:42.879Z,57.69
2022-09-12T15:52:17.412Z,58.09
2022-09-12T15:54:49.059Z,58.22
2022-09-12T15:57:20.500Z,58.11
2022-09-12T15:59:52.648Z,58.21
2022-09-12T16:02:24.282Z,58.78
2022-09-12T16:04:55.768Z,59.56
2022-09-12T16:07:27.470Z,60.52
2022-09-12T16:09:59.046Z,61.25
2022-09-12T16:12:30.641Z,62.21
2022-09-12T16:15:02.572Z,62.82
2022-09-12T16:17:34.049Z,63.58
2022-09-12T16:20:06.640Z,64.17
2022-09-12T16:22:38.538Z,64.60
2022-09-12T16:25:11.174Z,64.96
2022-09-12T16:27:42.898Z,65.32
2022-09-12T16:30:14.845Z,65.48
2022-09-12T16:32:46.568Z,65.97
2022-09-12T16:35:18.315Z,66.32
2022-09-12T16:37:49.926Z,66.46
2022-09-12T16:40:21.488Z,66.81
2022-09-12T16:42:53.009Z,66.89
2022-09-12T16:45:24.497Z,66.90
2022-09-12T16:47:55.914Z,67.08
2022-09-12T16:50:25.899Z,66.99
2022-09-12T16:52:57.399Z,67.04
2022-09-12T16:55:32.239Z,67.14
2022-09-12T16:58:04.016Z,67.06
2022-09-12T17:00:35.331Z,67.19
2022-09-12T17:03:06.823Z,67.13
2022-09-12T17:05:38.287Z,67.54
2022-09-12T17:08:09.995Z,67.83
2022-09-12T17:10:44.248Z,67.96
2022-09-12T17:13:15.736Z,68.29
2022-09-12T17:15:47.431Z,68.37
2022-09-12T17:18:19.077Z,68.62
2022-09-12T17:20:50.885Z,68.60
2022-09-12T17:23:22.515Z,68.60
2022-09-12T17:25:54.587Z,68.82
2022-09-12T17:28:26.282Z,68.87
2022-09-12T17:31:02.823Z,69.07
2022-09-12T17:33:35.696Z,68.92
2022-09-12T17:36:10.557Z,69.13
2022-09-12T17:38:43.185Z,69.48
2022-09-12T17:41:17.902Z,69.11
2022-09-12T17:43:51.805Z,68.96
2022-09-12T17:46:24.923Z,69.10
2022-09-12T17:48:58.389Z,69.25
2022-09-12T17:51:31.770Z,69.32
2022-09-12T17:54:08.804Z,69.45
2022-09-12T17:56:50.070Z,69.70
2022-09-12T17:59:24.968Z,69.75
2022-09-12T18:02:16.308Z,69.75
2022-09-12T18:04:49.030Z,69.96
2022-09-12T18:07:22.286Z,69.83
2022-09-12T18:09:55.289Z,70.00
2022-09-12T18:12:28.890Z,70.16
2022-09-12T18:15:00.692Z,70.15
2022-09-12T18:17:33.477Z,70.33
2022-09-12T18:20:06.470Z,70.47
2022-09-12T18:22:38.059Z,70.53
2022-09-12T18:25:11.180Z,70.66
2022-09-12T18:27:43.265Z,70.67
2022-09-12T18:30:22.828Z,70.87
2022-09-12T18:32:55.267Z,70.84
2022-09-12T18:35:28.276Z,70.95
2022-09-12T18:38:00.578Z,71.15
2022-09-12T18:40:42.827Z,71.31
2022-09-12T18:43:18.505Z,71.13
2022-09-12T18:45:53.319Z,71.01
2022-09-12T18:48:27.030Z,71.21
2022-09-12T18:51:05.936Z,71.66
2022-09-12T18:53:38.497Z,71.83
2022-09-12T18:56:14.660Z,71.88
2022-09-12T18:58:51.446Z,71.95
2022-09-12T19:01:26.893Z,72.21
2022-09-12T19:03:59.163Z,72.42
2022-09-12T19:06:33.438Z,72.38
2022-09-12T19:09:07.982Z,72.29
2022-09-12T19:11:42.654Z,72.21
2022-09-12T19:14:14.279Z,72.44
2022-09-12T19:16:45.854Z,72.33
2022-09-12T19:19:17.825Z,72.35
2022-09-12T19:21:49.455Z,72.86
2022-09-12T19:24:21.935Z,72.67
2022-09-12T19:26:53.696Z,72.62
2022-09-12T19:29:25.318Z,72.93
2022-09-12T19:31:57.292Z,73.02
2022-09-12T19:34:28.946Z,73.05
2022-09-12T19:37:00.562Z,73.09
2022-09-12T19:39:32.629Z,73.25
2022-09-12T19:42:13.782Z,73.11
2022-09-12T19:44:45.345Z,73.08
2022-09-12T19:47:16.916Z,73.29
2022-09-12T19:49:48.721Z,73.34
2022-09-12T19:52:20.397Z,73.42
2022-09-12T19:54:51.929Z,73.59
2022-09-12T19:57:22.049Z,73.47
2022-09-12T19:59:53.638Z,73.82
2022-09-12T20:02:27.932Z,73.60
2022-09-12T20:04:59.505Z,73.39
2022-09-12T20:07:31.016Z,73.47
2022-09-12T20:10:01.016Z,73.46
2022-09-12T20:12:32.530Z,73.93
2022-09-12T20:15:02.543Z,74.24
2022-09-12T20:17:34.325Z,74.49
2022-09-12T20:20:07.206Z,74.23
2022-09-12T20:22:40.246Z,74.24
2022-09-12T20:25:12.220Z,74.53
2022-09-12T20:27:44.024Z,74.78
2022-09-12T20:30:16.503Z,74.52
2022-09-12T20:32:48.047Z,74.66
2022-09-12T20:35:19.931Z,74.77
2022-09-12T20:37:51.428Z,74.86
2022-09-12T20:40:21.457Z,74.86
2022-09-12T20:42:52.969Z,75.25
2022-09-12T20:45:22.957Z,75.30
2022-09-12T20:47:54.390Z,75.38
2022-09-12T20:50:24.387Z,74.97
2022-09-12T20:52:56.721Z,74.61
2022-09-12T20:55:32.782Z,74.33
2022-09-12T20:58:05.824Z,74.69
2022-09-12T21:00:39.089Z,75.04
2022-09-12T21:03:10.678Z,75.07
2022-09-12T21:05:40.802Z,75.15
2022-09-12T21:08:12.729Z,75.47
2022-09-12T21:10:45.120Z,75.39
2022-09-12T21:13:19.230Z,75.26
2022-09-12T21:15:50.947Z,75.19
2022-09-12T21:18:22.818Z,75.29
2022-09-12T21:20:53.788Z,75.23
2022-09-12T21:23:26.502Z,75.52
2022-09-12T21:25:59.454Z,75.28
2022-09-12T21:28:31.034Z,74.92
2022-09-12T21:31:01.363Z,74.66
2022-09-12T21:33:32.864Z,74.86
2022-09-12T21:36:06.414Z,74.86
2022-09-12T21:38:38.233Z,75.20
2022-09-12T21:41:11.389Z,75.72
2022-09-12T21:43:43.536Z,75.65
2022-09-12T21:46:15.187Z,75.74
2022-09-12T21:48:46.733Z,75.71
2022-09-12T21:51:18.171Z,75.56
2022-09-12T21:53:49.758Z,75.81
2022-09-12T21:56:21.427Z,75.70
2022-09-12T21:58:52.849Z,75.84
2022-09-12T22:01:24.415Z,76.01
2022-09-12T22:03:55.913Z,76.07
2022-09-12T22:06:29.620Z,76.00
2022-09-12T22:09:01.017Z,76.28
2022-09-12T22:11:32.467Z,76.39
2022-09-12T22:14:03.905Z,76.59
2022-09-12T22:16:35.414Z,76.55
2022-09-12T22:19:05.575Z,76.53
2022-09-12T22:21:57.155Z,76.55
2022-09-12T22:24:29.910Z,76.72
2022-09-12T22:27:05.633Z,76.78
2022-09-12T22:29:37.184Z,76.77
2022-09-12T22:32:10.120Z,76.72
2022-09-12T22:34:41.877Z,76.72
2022-09-12T22:37:13.645Z,76.52
2022-09-12T22:39:45.097Z,76.08
2022-09-12T22:42:16.567Z,75.80
2022-09-12T22:44:46.519Z,75.74
2022-09-12T22:47:19.992Z,76.03
2022-09-12T22:49:51.435Z,76.29
2022-09-12T22:52:22.889Z,76.24
2022-09-12T22:54:54.586Z,76.30
2022-09-12T22:57:26.110Z,76.62
2022-09-12T22:59:56.041Z,76.83
2022-09-12T23:02:27.471Z,76.88
2022-09-12T23:04:59.144Z,76.97
2022-09-12T23:07:30.782Z,76.81
2022-09-12T23:10:00.740Z,76.56
2022-09-12T23:12:33.407Z,76.79
2022-09-12T23:15:05.226Z,76.70
2022-09-12T23:17:36.625Z,76.22
2022-09-12T23:20:09.817Z,76.04
2022-09-12T23:22:41.297Z,76.29
2022-09-12T23:25:12.858Z,76.62
2022-09-12T23:27:43.314Z,76.77
2022-09-12T23:30:21.515Z,77.11
2022-09-12T23:32:53.148Z,77.34
2022-09-12T23:35:24.592Z,77.47
2022-09-12T23:37:56.137Z,77.69
2022-09-12T23:40:26.247Z,77.60
2022-09-12T23:42:57.704Z,77.65
2022-09-12T23:45:29.583Z,77.63
2022-09-12T23:48:01.073Z,77.42
2022-09-12T23:50:32.504Z,77.84
2022-09-12T23:53:07.221Z,77.80
2022-09-12T23:55:38.796Z,77.63
2022-09-12T23:58:11.240Z,77.73
